Time;durP1;ratioP1;P1;durP2;ratioP2;P2;SDS_P1;SDS_P2;PMS_P1;PMS_P2;Temp;Humidity;BMP_temperature;BMP_pressure;BME280_temperature;BME280_humidity;BME280_pressure;Samples;Min_cycle;Max_cycle;Signal;HPM_P1;HPM_P2
2023/03/19 00:02:31;;;;;;;3.35;1.65;;;;;;;9.76;100.00;100913.25;5285481;28;20055;-68
2023/03/19 00:05:03;;;;;;;3.42;1.67;;;;;;;9.74;100.00;100915.19;5283844;28;20027;-68
2023/03/19 00:07:34;;;;;;;4.32;2.30;;;;;;;9.79;100.00;100909.50;5280613;28;20082;-68
2023/03/19 00:10:06;;;;;;;3.88;1.42;;;;;;;9.85;100.00;100909.06;5284626;28;20024;-68
2023/03/19 00:12:38;;;;;;;4.43;1.80;;;;;;;9.83;100.00;100918.97;5288290;28;20117;-68
2023/03/19 00:15:12;;;;;;;3.05;1.80;;;;;;;9.81;100.00;100910.25;5283583;28;20027;-68
2023/03/19 00:17:44;;;;;;;2.75;1.40;;;;;;;9.75;100.00;100910.69;5284226;28;20599;-68
2023/03/19 00:20:17;;;;;;;3.53;1.48;;;;;;;9.69;100.00;100916.47;5283434;28;20110;-69
2023/03/19 00:22:48;;;;;;;3.33;1.85;;;;;;;9.72;100.00;100921.56;5284157;28;20028;-68
2023/03/19 00:25:19;;;;;;;3.80;1.73;;;;;;;9.76;100.00;100917.72;5279208;28;20377;-68
2023/03/19 00:27:53;;;;;;;4.50;1.60;;;;;;;9.75;100.00;100930.19;5281850;28;20059;-68
2023/03/19 00:30:24;;;;;;;3.03;1.65;;;;;;;9.65;100.00;100925.66;5280076;28;20060;-68
2023/03/19 00:32:55;;;;;;;4.90;1.90;;;;;;;9.65;100.00;100929.16;5286145;28;20115;-68
2023/03/19 00:35:27;;;;;;;3.47;1.67;;;;;;;9.69;100.00;100927.97;5282844;28;20106;-68
2023/03/19 00:37:58;;;;;;;5.15;1.88;;;;;;;9.66;100.00;100922.84;5288611;28;20534;-68
2023/03/19 00:40:29;;;;;;;5.25;2.15;;;;;;;9.64;100.00;100924.78;5283248;28;20411;-68
2023/03/19 00:43:01;;;;;;;4.30;2.25;;;;;;;9.60;100.00;100918.81;5285688;28;20037;-68
2023/03/19 00:45:32;;;;;;;5.68;2.05;;;;;;;9.64;100.00;100927.44;5284256;28;20095;-69
2023/03/19 00:48:04;;;;;;;4.63;2.10;;;;;;;9.64;100.00;100923.94;5290698;28;20088;-68
2023/03/19 00:50:35;;;;;;;4.90;2.13;;;;;;;9.69;100.00;100922.63;5280900;28;20027;-69
2023/03/19 00:53:07;;;;;;;4.20;2.40;;;;;;;9.71;100.00;100933.19;5289671;28;20031;-68
2023/03/19 00:55:38;;;;;;;4.20;2.20;;;;;;;9.70;100.00;100929.66;5279483;28;20027;-68
2023/03/19 00:58:10;;;;;;;4.97;2.50;;;;;;;9.61;100.00;100922.34;5283699;28;20028;-68
2023/03/19 01:00:41;;;;;;;5.60;2.50;;;;;;;9.64;100.00;100930.09;5278134;28;20028;-68
2023/03/19 01:03:13;;;;;;;4.38;2.55;;;;;;;9.58;100.00;100923.38;5281031;28;20080;-68
2023/03/19 01:05:47;;;;;;;5.05;2.80;;;;;;;9.60;100.00;100925.97;5283555;28;20032;-68
2023/03/19 01:08:18;;;;;;;3.55;2.25;;;;;;;9.57;100.00;100936.84;5285660;28;20016;-68
2023/03/19 01:10:51;;;;;;;5.00;2.50;;;;;;;9.62;100.00;100922.22;5279041;28;20037;-68
2023/03/19 01:13:22;;;;;;;4.65;2.50;;;;;;;9.58;100.00;100934.03;5287736;28;21563;-69
2023/03/19 01:15:53;;;;;;;5.13;2.58;;;;;;;9.54;100.00;100937.88;5290048;28;20603;-68
2023/03/19 01:18:25;;;;;;;5.07;2.70;;;;;;;9.62;100.00;100930.19;5285498;28;20149;-68
2023/03/19 01:20:57;;;;;;;4.55;2.83;;;;;;;9.53;100.00;100936.22;5281763;28;20031;-68
2023/03/19 01:23:30;;;;;;;6.25;2.72;;;;;;;9.56;100.00;100941.31;5284874;28;20027;-68
2023/03/19 01:26:01;;;;;;;4.85;3.03;;;;;;;9.63;100.00;100925.75;5279998;28;20108;-68
2023/03/19 01:28:33;;;;;;;4.82;2.88;;;;;;;9.65;100.00;100930.97;5286501;28;20028;-68
2023/03/19 01:31:06;;;;;;;5.22;2.70;;;;;;;9.55;100.00;100936.94;5283470;28;20039;-68
2023/03/19 01:33:38;;;;;;;6.40;3.08;;;;;;;9.55;100.00;100939.63;5283574;28;20031;-68
2023/03/19 01:36:10;;;;;;;5.05;2.80;;;;;;;9.53;100.00;100941.53;5285042;28;20030;-68
2023/03/19 01:38:41;;;;;;;5.22;2.90;;;;;;;9.53;100.00;100936.22;5281909;28;20087;-68
2023/03/19 01:41:13;;;;;;;4.47;2.80;;;;;;;9.57;100.00;100931.53;5283188;28;20391;-68
2023/03/19 01:43:45;;;;;;;4.80;2.83;;;;;;;9.51;100.00;100923.94;5282721;28;20588;-68
2023/03/19 01:46:27;;;;;;;6.60;2.80;;;;;;;9.58;100.00;100930.53;5283781;28;20686;-68
2023/03/19 01:49:05;;;;;;;6.82;3.20;;;;;;;9.71;100.00;100928.72;5284586;28;20035;-68
2023/03/19 01:51:44;;;;;;;6.47;3.00;;;;;;;9.61;100.00;100930.34;5280152;28;20163;-68
2023/03/19 01:54:20;;;;;;;3.85;3.03;;;;;;;9.70;100.00;100937.66;5285378;28;20078;-68
2023/03/19 01:56:57;;;;;;;5.25;2.90;;;;;;;9.55;100.00;100934.28;5291440;28;20085;-68
2023/03/19 01:59:35;;;;;;;6.03;3.00;;;;;;;9.60;100.00;100929.47;5288621;28;20434;-68
2023/03/19 02:02:20;;;;;;;6.10;2.88;;;;;;;9.61;100.00;100925.84;5284861;28;20043;-68
2023/03/19 02:04:57;;;;;;;5.47;2.78;;;;;;;9.65;100.00;100928.31;5290081;28;20171;-67
2023/03/19 02:07:31;;;;;;;4.85;3.15;;;;;;;9.65;100.00;100931.81;5286274;28;20592;-68
2023/03/19 02:10:07;;;;;;;4.97;3.50;;;;;;;9.56;100.00;100933.31;5286983;28;20040;-68
2023/03/19 02:12:38;;;;;;;5.63;3.35;;;;;;;9.68;100.00;100931.56;5276981;28;20023;-68
2023/03/19 02:15:11;;;;;;;5.13;3.42;;;;;;;9.64;100.00;100930.09;5287318;28;20399;-68
2023/03/19 02:17:43;;;;;;;5.32;3.78;;;;;;;9.71;100.00;100930.53;5288229;28;20032;-68
2023/03/19 02:20:14;;;;;;;6.32;4.30;;;;;;;9.64;100.00;100930.09;5283811;28;20429;-68
2023/03/19 02:23:20;;;;;;;7.22;4.30;;;;;;;9.61;100.00;100930.34;5289480;28;20073;-68
2023/03/19 02:26:09;;;;;;;6.60;4.13;;;;;;;9.66;100.00;100930.00;5290056;28;20075;-68
2023/03/19 02:28:44;;;;;;;5.25;4.10;;;;;;;9.62;100.00;100940.84;5295109;28;20027;-68
2023/03/19 02:31:17;;;;;;;7.05;4.00;;;;;;;9.67;100.00;100939.72;5290307;28;20036;-68
2023/03/19 02:34:11;;;;;;;4.78;3.60;;;;;;;9.60;100.00;100934.78;5285269;28;20055;-68
2023/03/19 02:36:47;;;;;;;5.15;3.92;;;;;;;9.52;100.00;100934.50;5293636;28;20032;-68
2023/03/19 02:39:39;;;;;;;6.88;4.38;;;;;;;9.56;100.00;100937.78;5284636;28;20486;-68
2023/03/19 02:42:13;;;;;;;6.90;4.10;;;;;;;9.61;100.00;100933.84;5288177;28;20868;-68
2023/03/19 02:44:45;;;;;;;5.65;4.40;;;;;;;9.54;100.00;100942.38;5287050;28;20036;-67
2023/03/19 02:47:16;;;;;;;5.97;4.25;;;;;;;9.54;100.00;100943.22;5286702;28;20035;-68
2023/03/19 02:49:48;;;;;;;6.07;4.72;;;;;;;9.61;100.00;100952.50;5290303;28;20114;-69
2023/03/19 02:52:20;;;;;;;5.93;4.72;;;;;;;9.59;100.00;100943.75;5285153;28;20036;-68
2023/03/19 02:54:51;;;;;;;8.55;5.00;;;;;;;9.59;100.00;100945.56;5284371;28;20036;-68
2023/03/19 02:57:22;;;;;;;8.15;4.90;;;;;;;9.58;100.00;100944.69;5284683;28;20037;-68
2023/03/19 02:59:54;;;;;;;6.93;5.00;;;;;;;9.54;100.00;100951.22;5284679;28;20382;-68
2023/03/19 03:02:26;;;;;;;6.95;4.95;;;;;;;9.52;100.00;100952.28;5286520;28;20028;-68
2023/03/19 03:04:57;;;;;;;6.72;4.88;;;;;;;9.62;100.00;100959.50;5286411;28;20038;-68
2023/03/19 03:07:28;;;;;;;5.95;4.55;;;;;;;9.60;100.00;100953.44;5284412;28;20019;-68
2023/03/19 03:10:00;;;;;;;7.03;5.07;;;;;;;9.57;100.00;100955.50;5286393;28;20381;-68
2023/03/19 03:12:31;;;;;;;7.18;5.03;;;;;;;9.56;100.00;100956.44;5284633;28;20032;-68
2023/03/19 03:15:04;;;;;;;7.78;5.10;;;;;;;9.59;100.00;100951.75;5291317;28;20419;-68
2023/03/19 03:17:37;;;;;;;8.57;5.13;;;;;;;9.56;100.00;100956.44;5286062;28;20490;-68
2023/03/19 03:20:10;;;;;;;8.18;5.40;;;;;;;9.51;100.00;100950.56;5275518;28;20048;-67
2023/03/19 03:22:42;;;;;;;8.38;5.03;;;;;;;9.49;100.00;100955.16;5288146;28;20550;-68
2023/03/19 03:25:13;;;;;;;6.00;5.00;;;;;;;9.50;100.00;100959.53;5284587;28;20028;-68
2023/03/19 03:27:45;;;;;;;8.30;5.35;;;;;;;9.45;100.00;100951.84;5286280;28;20096;-68
2023/03/19 03:30:16;;;;;;;7.70;5.18;;;;;;;9.46;100.00;100953.56;5285715;28;20047;-68
2023/03/19 03:32:47;;;;;;;6.93;5.10;;;;;;;9.56;100.00;100953.78;5288076;28;20035;-68
2023/03/19 03:35:22;;;;;;;8.32;5.20;;;;;;;9.41;100.00;100955.69;5281490;28;20130;-68
2023/03/19 03:37:54;;;;;;;7.88;5.22;;;;;;;9.42;100.00;100952.09;5282848;28;20308;-68
2023/03/19 03:40:26;;;;;;;6.93;5.35;;;;;;;9.36;100.00;100942.72;5283662;28;20462;-68
2023/03/19 03:42:57;;;;;;;8.02;5.30;;;;;;;9.32;100.00;100948.34;5283232;28;20066;-68
2023/03/19 03:45:28;;;;;;;8.43;4.80;;;;;;;9.32;100.00;100959.00;5292012;28;20457;-68
2023/03/19 03:48:00;;;;;;;8.38;5.45;;;;;;;9.27;100.00;100961.13;5288966;28;20031;-68
2023/03/19 03:50:32;;;;;;;6.90;5.15;;;;;;;9.16;100.00;100956.53;5291375;28;20043;-68
2023/03/19 03:53:03;;;;;;;7.07;4.25;;;;;;;9.15;100.00;100971.69;5279190;28;21378;-68
2023/03/19 03:55:35;;;;;;;9.45;5.22;;;;;;;9.18;100.00;100967.94;5283843;28;20316;-68
2023/03/19 03:58:07;;;;;;;7.75;5.35;;;;;;;9.12;100.00;100977.19;5286024;28;20486;-68
2023/03/19 04:00:39;;;;;;;8.80;6.25;;;;;;;9.03;100.00;100973.38;5280867;28;20028;-68
2023/03/19 04:03:10;;;;;;;7.40;5.85;;;;;;;8.98;100.00;100970.16;5293261;28;20031;-68
2023/03/19 04:05:43;;;;;;;6.97;5.63;;;;;;;8.93;100.00;100977.59;5285512;28;20034;-69
2023/03/19 04:08:14;;;;;;;7.40;5.53;;;;;;;8.99;100.00;100974.53;5285220;28;20028;-68
2023/03/19 04:10:46;;;;;;;6.60;5.10;;;;;;;8.95;100.00;100974.84;5286120;28;20441;-69
2023/03/19 04:13:17;;;;;;;7.78;4.97;;;;;;;8.82;100.00;100964.16;5286310;28;20024;-68
2023/03/19 04:15:49;;;;;;;8.77;5.78;;;;;;;8.76;100.00;100965.44;5284927;28;20056;-68
2023/03/19 04:18:20;;;;;;;6.68;4.95;;;;;;;8.87;100.00;100969.19;5285333;28;20560;-68
2023/03/19 04:20:51;;;;;;;8.73;5.47;;;;;;;8.82;100.00;100970.34;5282925;28;20424;-68
2023/03/19 04:23:23;;;;;;;7.45;5.40;;;;;;;8.77;100.00;100969.78;5284477;28;20553;-68
2023/03/19 04:26:00;;;;;;;7.13;5.80;;;;;;;8.69;100.00;100964.16;5276205;28;20040;-68
2023/03/19 04:28:32;;;;;;;8.30;5.40;;;;;;;8.57;100.00;100960.50;5277663;28;20508;-68
2023/03/19 04:31:06;;;;;;;7.85;5.40;;;;;;;8.58;100.00;100970.16;5281534;28;20020;-68
2023/03/19 04:33:37;;;;;;;7.55;5.13;;;;;;;8.64;100.00;100966.25;5284848;28;20028;-67
2023/03/19 04:36:09;;;;;;;6.53;5.25;;;;;;;8.56;100.00;100966.75;5283489;28;20375;-68
2023/03/19 04:38:40;;;;;;;7.80;5.90;;;;;;;8.43;100.00;100968.50;5284808;28;20406;-68
2023/03/19 04:41:14;;;;;;;7.07;5.25;;;;;;;8.38;100.00;100962.59;5277359;28;20028;-68
2023/03/19 04:43:46;;;;;;;7.22;5.45;;;;;;;8.40;100.00;100968.72;5290244;28;20054;-68
2023/03/19 04:46:17;;;;;;;7.97;5.75;;;;;;;8.47;100.00;100977.16;5282553;28;20028;-68
2023/03/19 04:48:49;;;;;;;9.57;5.82;;;;;;;8.40;100.00;100974.88;5280609;28;20028;-68
2023/03/19 04:51:21;;;;;;;9.27;6.15;;;;;;;8.30;100.00;100971.06;5281507;28;20350;-68
2023/03/19 04:53:52;;;;;;;7.38;5.50;;;;;;;8.20;100.00;100977.97;5290226;28;20519;-68
2023/03/19 04:56:23;;;;;;;8.55;6.15;;;;;;;8.14;100.00;100978.34;5279155;28;20477;-67
2023/03/19 04:58:55;;;;;;;8.38;6.18;;;;;;;8.16;100.00;100971.13;5288433;28;20016;-68
2023/03/19 05:01:27;;;;;;;8.02;5.60;;;;;;;8.18;100.00;100977.19;5284185;28;20069;-68
2023/03/19 05:03:58;;;;;;;10.77;6.00;;;;;;;8.11;100.00;100989.16;5283383;28;20529;-68
2023/03/19 05:06:31;;;;;;;8.55;6.13;;;;;;;8.07;100.00;100988.50;5290003;28;20020;-68
2023/03/19 05:09:03;;;;;;;9.98;6.32;;;;;;;8.02;100.00;100991.47;5280975;28;20028;-68
2023/03/19 05:11:35;;;;;;;8.00;5.95;;;;;;;8.12;100.00;100998.88;5283603;28;20505;-68
2023/03/19 05:14:07;;;;;;;10.73;6.47;;;;;;;8.02;100.00;100998.59;5285855;28;20028;-67
2023/03/19 05:16:38;;;;;;;9.25;6.63;;;;;;;8.01;100.00;100994.22;5283077;28;20028;-68
2023/03/19 05:19:10;;;;;;;10.57;7.35;;;;;;;8.01;100.00;100996.88;5288530;28;20611;-68
2023/03/19 05:21:41;;;;;;;9.15;7.05;;;;;;;8.00;100.00;100995.19;5281707;28;20039;-68
2023/03/19 05:24:12;;;;;;;11.15;7.07;;;;;;;7.84;100.00;101003.25;5296832;28;20027;-68
2023/03/19 05:26:45;;;;;;;10.60;6.97;;;;;;;7.87;100.00;101004.88;5288255;28;20040;-69
2023/03/19 05:29:16;;;;;;;10.52;7.18;;;;;;;7.90;100.00;101004.66;5278324;28;20031;-68
2023/03/19 05:31:48;;;;;;;10.00;7.13;;;;;;;7.74;100.00;101010.09;5281945;28;20016;-68
2023/03/19 05:34:20;;;;;;;10.70;7.07;;;;;;;7.79;100.00;101015.97;5285925;28;20052;-68
2023/03/19 05:36:51;;;;;;;13.15;8.95;;;;;;;7.88;100.00;101014.53;5287272;28;20380;-68
2023/03/19 05:39:23;;;;;;;9.52;6.88;;;;;;;7.74;100.00;101013.59;5292268;28;20485;-68
2023/03/19 05:41:54;;;;;;;9.45;6.43;;;;;;;7.75;100.00;101022.44;5286206;28;20031;-68
2023/03/19 05:44:26;;;;;;;9.13;6.97;;;;;;;7.68;100.00;101013.13;5285056;28;20153;-68
2023/03/19 05:46:57;;;;;;;10.30;6.82;;;;;;;7.71;100.00;101018.25;5288470;28;20482;-68
2023/03/19 05:49:28;;;;;;;8.77;6.75;;;;;;;7.64;100.00;101023.94;5288749;28;20103;-68
2023/03/19 05:52:00;;;;;;;10.65;7.80;;;;;;;7.61;100.00;101028.56;5279964;28;20023;-68
2023/03/19 05:54:31;;;;;;;10.10;6.97;;;;;;;7.49;100.00;101030.19;5285336;28;20095;-68
2023/03/19 05:57:03;;;;;;;8.88;7.13;;;;;;;7.60;100.00;101037.50;5285114;28;20028;-68
2023/03/19 05:59:34;;;;;;;9.88;7.43;;;;;;;7.51;100.00;101025.63;5284001;28;20854;-68
2023/03/19 06:02:06;;;;;;;11.20;8.10;;;;;;;7.62;100.00;101030.28;5283068;28;20536;-68
2023/03/19 06:04:37;;;;;;;10.23;7.85;;;;;;;7.54;100.00;101019.31;5278167;28;20149;-67
2023/03/19 06:07:09;;;;;;;10.23;7.90;;;;;;;7.54;100.00;101035.22;5290053;28;20382;-68
2023/03/19 06:09:40;;;;;;;12.23;8.68;;;;;;;7.51;100.00;101044.22;5294526;28;20490;-68
2023/03/19 06:12:12;;;;;;;13.02;9.15;;;;;;;7.53;100.00;101044.97;5286553;28;20397;-68
2023/03/19 06:14:43;;;;;;;12.93;8.25;;;;;;;7.63;100.00;101046.16;5285333;28;20410;-68
2023/03/19 06:17:15;;;;;;;10.73;8.07;;;;;;;7.61;100.00;101048.03;5290107;28;20035;-68
2023/03/19 06:19:46;;;;;;;11.65;8.85;;;;;;;7.70;100.00;101048.41;5289780;28;20316;-67
2023/03/19 06:22:17;;;;;;;13.18;8.88;;;;;;;7.62;100.00;101060.34;5282239;28;20093;-68
2023/03/19 06:24:49;;;;;;;13.07;8.68;;;;;;;7.58;100.00;101058.00;5287870;28;20020;-68
2023/03/19 06:27:20;;;;;;;13.60;9.27;;;;;;;7.56;100.00;101068.69;5282577;28;20088;-68
2023/03/19 06:29:51;;;;;;;13.63;9.27;;;;;;;7.79;100.00;101061.13;5293153;28;20071;-67
2023/03/19 06:32:23;;;;;;;13.25;9.95;;;;;;;7.65;100.00;101073.47;5288837;28;20056;-68
2023/03/19 06:34:55;;;;;;;12.68;9.63;;;;;;;7.72;100.00;101071.25;5289352;28;20077;-68
2023/03/19 06:37:26;;;;;;;14.23;10.38;;;;;;;7.77;100.00;101071.84;5282794;28;20060;-68
2023/03/19 06:39:58;;;;;;;14.27;10.55;;;;;;;7.77;100.00;101078.97;5282246;28;20080;-67
2023/03/19 06:42:29;;;;;;;13.57;10.70;;;;;;;7.70;100.00;101075.81;5277884;28;20033;-68
2023/03/19 06:45:01;;;;;;;13.95;10.45;;;;;;;7.65;100.00;101084.06;5295326;28;20043;-68
2023/03/19 06:47:32;;;;;;;15.27;11.15;;;;;;;7.70;100.00;101081.13;5287895;28;20050;-68
2023/03/19 06:50:04;;;;;;;15.75;11.52;;;;;;;7.84;100.00;101080.28;5274721;28;20745;-68
2023/03/19 06:52:35;;;;;;;15.15;11.10;;;;;;;7.73;100.00;101086.28;5278624;28;20035;-67
2023/03/19 06:55:07;;;;;;;16.02;11.23;;;;;;;7.79;100.00;101085.03;5282844;28;20028;-67
2023/03/19 06:57:39;;;;;;;13.63;10.80;;;;;;;7.71;100.00;101088.16;5289147;28;20081;-67
2023/03/19 07:00:11;;;;;;;15.68;10.65;;;;;;;7.69;100.00;101090.06;5284627;28;20036;-68
2023/03/19 07:02:44;;;;;;;14.02;10.38;;;;;;;7.81;100.00;101084.00;5285391;28;20024;-68
2023/03/19 07:05:15;;;;;;;15.50;10.15;;;;;;;7.70;100.00;101088.25;5282457;28;20783;-68
2023/03/19 07:07:46;;;;;;;17.13;10.82;;;;;;;7.72;100.00;101097.81;5281611;28;20022;-67
2023/03/19 07:10:19;;;;;;;14.55;11.05;;;;;;;7.93;100.00;101105.44;5286793;28;20090;-68
2023/03/19 07:12:50;;;;;;;14.88;11.15;;;;;;;7.90;100.00;101114.47;5279461;28;20035;-67
2023/03/19 07:15:22;;;;;;;16.65;12.02;;;;;;;7.96;100.00;101108.78;5299154;28;20019;-67
2023/03/19 07:17:53;;;;;;;17.20;12.10;;;;;;;7.93;100.00;101105.44;5286164;28;20019;-68
2023/03/19 07:20:25;;;;;;;16.35;11.98;;;;;;;8.04;100.00;101105.66;5296550;28;20028;-68
2023/03/19 07:22:56;;;;;;;17.45;12.50;;;;;;;8.00;100.00;101118.25;5281377;28;20146;-68
2023/03/19 07:25:27;;;;;;;16.58;12.07;;;;;;;8.10;100.00;101115.03;5283978;28;20446;-68
2023/03/19 07:27:59;;;;;;;20.05;12.98;;;;;;;8.21;100.00;101124.06;5255316;28;1088445;-67
2023/03/19 07:30:30;;;;;;;20.95;13.23;;;;;;;8.15;100.00;101118.25;5287435;28;20301;-68
2023/03/19 07:33:02;;;;;;;19.55;13.73;;;;;;;8.23;100.00;101131.94;5286952;28;20024;-68
2023/03/19 07:35:33;;;;;;;18.02;13.10;;;;;;;8.30;100.00;101130.59;5289179;28;20114;-68
2023/03/19 07:38:05;;;;;;;21.23;13.90;;;;;;;8.28;100.00;101135.16;5283626;28;20060;-68
2023/03/19 07:40:36;;;;;;;21.08;14.10;;;;;;;8.25;100.00;101135.34;5286143;28;20032;-68
2023/03/19 07:43:08;;;;;;;18.75;14.10;;;;;;;8.36;100.00;101132.00;5283099;28;20863;-68
2023/03/19 07:45:39;;;;;;;22.30;13.40;;;;;;;8.42;100.00;101137.84;5280717;28;20115;-68
2023/03/19 07:48:11;;;;;;;20.80;12.73;;;;;;;8.47;100.00;101134.88;5286395;28;20024;-68
2023/03/19 07:50:43;;;;;;;23.05;13.60;;;;;;;8.56;100.00;101141.44;5291417;28;20081;-68
2023/03/19 07:53:14;;;;;;;21.42;13.10;;;;;;;8.68;100.00;101139.81;5287668;28;20044;-68
2023/03/19 07:55:46;;;;;;;25.50;13.55;;;;;;;8.84;100.00;101148.53;5279731;28;20032;-68
2023/03/19 07:58:18;;;;;;;24.55;12.23;;;;;;;8.90;100.00;101156.09;5279609;28;20028;-68
2023/03/19 08:00:49;;;;;;;21.52;12.13;;;;;;;8.97;100.00;101141.41;5283707;28;20028;-68
2023/03/19 08:03:21;;;;;;;19.08;10.65;;;;;;;8.95;100.00;101145.16;5283292;28;20383;-68
2023/03/19 08:05:52;;;;;;;18.85;9.98;;;;;;;8.94;100.00;101148.78;5281009;28;20040;-68
2023/03/19 08:08:24;;;;;;;16.40;9.40;;;;;;;8.96;100.00;101149.53;5290422;28;20035;-68
2023/03/19 08:10:55;;;;;;;18.25;9.10;;;;;;;8.96;100.00;101153.03;5285521;28;20035;-68
2023/03/19 08:13:27;;;;;;;17.15;9.13;;;;;;;9.03;100.00;101148.16;5275682;28;20099;-68
2023/03/19 08:15:59;;;;;;;15.68;8.95;;;;;;;8.96;100.00;101150.38;5293013;28;20025;-68
2023/03/19 08:18:31;;;;;;;17.08;9.48;;;;;;;8.95;100.00;101151.31;5290295;28;20028;-68
2023/03/19 08:21:02;;;;;;;19.20;9.63;;;;;;;8.99;100.00;101163.50;5291990;28;20089;-68
2023/03/19 08:23:34;;;;;;;20.95;10.07;;;;;;;8.93;100.00;101158.53;5282931;28;20046;-68
2023/03/19 08:26:05;;;;;;;17.83;9.60;;;;;;;8.95;100.00;101161.13;5291520;28;20050;-68
2023/03/19 08:28:37;;;;;;;18.02;10.75;;;;;;;8.97;100.00;101165.38;5289849;28;20032;-68
2023/03/19 08:31:11;;;;;;;16.42;9.70;;;;;;;9.00;100.00;101177.66;5287300;28;20039;-68
2023/03/19 08:33:42;;;;;;;21.05;9.88;;;;;;;9.06;100.00;101168.41;5279421;28;20355;-68
2023/03/19 08:36:14;;;;;;;20.10;9.88;;;;;;;9.02;100.00;101165.94;5301509;28;20028;-68
2023/03/19 08:38:46;;;;;;;20.70;10.55;;;;;;;9.08;100.00;101161.19;5282462;28;20555;-68
2023/03/19 08:41:19;;;;;;;21.38;9.40;;;;;;;9.17;100.00;101172.06;5282765;28;20035;-68
2023/03/19 08:43:51;;;;;;;18.67;9.50;;;;;;;9.24;100.00;101167.19;5289853;28;20034;-68
2023/03/19 08:46:22;;;;;;;21.90;9.27;;;;;;;9.37;100.00;101178.75;5281507;28;20024;-68
2023/03/19 08:48:54;;;;;;;15.65;9.65;;;;;;;9.55;100.00;101175.81;5277930;28;20111;-68
2023/03/19 08:51:27;;;;;;;14.07;8.15;;;;;;;9.67;100.00;101180.34;5281875;28;20169;-67
2023/03/19 08:53:58;;;;;;;18.15;7.75;;;;;;;9.81;100.00;101182.06;5275111;28;20028;-68
2023/03/19 08:56:29;;;;;;;19.50;8.32;;;;;;;9.92;100.00;101186.66;5287990;28;20028;-68
2023/03/19 08:59:01;;;;;;;14.50;7.88;;;;;;;10.00;100.00;101189.66;5283984;28;20033;-68
2023/03/19 09:01:32;;;;;;;13.30;7.35;;;;;;;10.05;100.00;101192.00;5280866;28;20089;-68
2023/03/19 09:04:04;;;;;;;18.80;7.75;;;;;;;10.13;100.00;101195.00;5285910;28;20039;-68
2023/03/19 09:06:35;;;;;;;15.10;7.65;;;;;;;10.21;100.00;101198.81;5287400;28;20038;-68
2023/03/19 09:09:06;;;;;;;17.88;7.43;;;;;;;10.32;100.00;101198.13;5277610;28;20742;-68
2023/03/19 09:11:38;;;;;;;17.70;7.40;;;;;;;10.39;100.00;101199.41;5281647;28;20510;-68
2023/03/19 09:14:10;;;;;;;17.33;7.32;;;;;;;10.46;100.00;101198.97;5277487;28;20032;-68
2023/03/19 09:16:42;;;;;;;18.05;6.82;;;;;;;10.48;100.00;101197.91;5289272;28;20028;-68
2023/03/19 09:19:14;;;;;;;16.60;6.43;;;;;;;10.51;100.00;101200.34;5280445;28;20103;-68
2023/03/19 09:21:45;;;;;;;14.18;6.20;;;;;;;10.48;100.00;101205.06;5288951;28;20118;-68
2023/03/19 09:24:20;;;;;;;19.00;6.80;;;;;;;10.39;100.00;101196.75;5280184;28;20154;-68
2023/03/19 09:26:51;;;;;;;20.75;6.18;;;;;;;10.35;100.00;101205.88;5283857;28;20481;-68
2023/03/19 09:29:23;;;;;;;17.90;6.90;;;;;;;10.29;100.00;101202.78;5286519;28;20031;-68
2023/03/19 09:31:54;;;;;;;15.00;6.30;;;;;;;10.27;100.00;101213.56;5284076;28;20039;-68
2023/03/19 09:34:26;;;;;;;19.65;7.63;;;;;;;10.21;100.00;101217.50;5281660;28;20024;-67
2023/03/19 09:36:57;;;;;;;17.42;7.53;;;;;;;10.18;100.00;101208.84;5288100;28;20591;-67
2023/03/19 09:39:28;;;;;;;16.40;7.50;;;;;;;10.18;100.00;101216.84;5288573;28;20028;-68
2023/03/19 09:42:09;;;;;;;14.20;6.70;;;;;;;10.25;100.00;101223.47;5280883;28;20135;-68
2023/03/19 09:44:44;;;;;;;13.70;7.70;;;;;;;10.33;100.00;101221.16;5286251;28;20082;-67
2023/03/19 09:47:27;;;;;;;18.63;7.70;;;;;;;10.40;100.00;101217.09;5292001;28;20028;-68
2023/03/19 09:50:19;;;;;;;14.27;7.55;;;;;;;10.44;100.00;101222.25;5281821;28;20036;-68
2023/03/19 09:53:02;;;;;;;19.83;8.38;;;;;;;10.45;100.00;101218.59;5274598;28;20976;-67
2023/03/19 09:55:41;;;;;;;21.10;8.18;;;;;;;10.40;100.00;101222.44;5281921;28;20056;-68
2023/03/19 09:58:17;;;;;;;20.95;8.55;;;;;;;10.44;100.00;101224.91;5283843;28;20020;-68
2023/03/19 10:00:51;;;;;;;17.17;7.07;;;;;;;10.49;100.00;101222.75;5282850;28;20474;-68
2023/03/19 10:03:28;;;;;;;15.20;6.80;;;;;;;10.62;100.00;101225.41;5284088;28;20036;-68
2023/03/19 10:06:26;;;;;;;14.63;6.50;;;;;;;10.67;100.00;101225.97;5280278;28;20072;-68
2023/03/19 10:09:10;;;;;;;17.95;7.22;;;;;;;10.82;100.00;101226.69;5279058;28;20066;-68
2023/03/19 10:12:06;;;;;;;13.05;5.65;;;;;;;10.91;100.00;101220.66;5291341;28;20035;-68
2023/03/19 10:14:52;;;;;;;13.35;5.68;;;;;;;11.01;100.00;101227.06;5274608;28;20033;-68
2023/03/19 10:17:42;;;;;;;15.68;6.28;;;;;;;11.07;100.00;101225.78;5284579;28;20110;-68
2023/03/19 10:20:13;;;;;;;13.13;5.72;;;;;;;11.19;100.00;101228.38;5281329;28;20042;-68
2023/03/19 10:22:50;;;;;;;14.13;5.45;;;;;;;11.28;100.00;101223.34;5288294;28;20032;-68
2023/03/19 10:25:26;;;;;;;16.33;5.47;;;;;;;11.32;100.00;101231.00;5279498;28;20464;-68
2023/03/19 10:28:10;;;;;;;15.32;5.53;;;;;;;11.41;100.00;101225.94;5284469;28;20078;-68
2023/03/19 10:30:50;;;;;;;12.65;5.00;;;;;;;11.47;100.00;101226.38;5282491;28;22450;-68
2023/03/19 10:33:25;;;;;;;14.82;5.55;;;;;;;11.57;100.00;101232.72;5281692;28;20451;-68
2023/03/19 10:36:04;;;;;;;14.45;5.40;;;;;;;11.67;100.00;101237.38;5285614;28;20042;-68
2023/03/19 10:38:42;;;;;;;12.38;4.28;;;;;;;11.72;100.00;101241.41;5282376;28;20576;-69
2023/03/19 10:41:39;;;;;;;10.75;4.03;;;;;;;11.79;100.00;101233.78;5277792;28;20040;-68
2023/03/19 10:44:22;;;;;;;14.70;4.60;;;;;;;11.80;100.00;101235.50;5290960;28;20448;-68
2023/03/19 10:46:56;;;;;;;11.70;5.28;;;;;;;11.74;100.00;101242.16;5290979;28;20039;-68
2023/03/19 10:49:28;;;;;;;10.82;4.38;;;;;;;11.78;100.00;101240.94;5288065;28;20032;-68
2023/03/19 10:52:00;;;;;;;12.82;4.50;;;;;;;11.86;100.00;101244.88;5278752;28;20090;-68
2023/03/19 10:54:32;;;;;;;13.20;4.80;;;;;;;11.91;100.00;101246.25;5287013;28;20502;-68
2023/03/19 10:57:03;;;;;;;13.70;5.80;;;;;;;12.00;100.00;101241.19;5290096;28;20159;-68
2023/03/19 10:59:37;;;;;;;13.45;4.90;;;;;;;12.11;100.00;101247.41;5290265;28;20543;-68
2023/03/19 11:02:18;;;;;;;15.02;5.18;;;;;;;12.23;100.00;101244.75;5280918;28;20562;-68
2023/03/19 11:05:11;;;;;;;14.07;4.82;;;;;;;12.33;100.00;101251.09;5284095;28;20036;-68
2023/03/19 11:07:42;;;;;;;11.23;4.70;;;;;;;12.38;100.00;101251.59;5280324;28;20494;-69
2023/03/19 11:10:15;;;;;;;11.88;4.03;;;;;;;12.46;100.00;101248.34;5281628;28;20032;-68
2023/03/19 11:12:53;;;;;;;9.18;4.25;;;;;;;12.46;100.00;101249.19;5282830;28;20030;-68
2023/03/19 11:15:35;;;;;;;11.25;5.15;;;;;;;12.47;100.00;101258.06;5281748;28;20038;-68
2023/03/19 11:18:37;;;;;;;14.02;4.57;;;;;;;12.50;100.00;101255.16;5284891;28;20028;-68
2023/03/19 11:21:29;;;;;;;13.73;5.68;;;;;;;12.47;100.00;101258.91;5280981;28;20091;-69
2023/03/19 11:24:03;;;;;;;16.65;9.20;;;;;;;12.42;100.00;101258.41;5277622;28;20025;-68
2023/03/19 11:26:34;;;;;;;15.43;9.77;;;;;;;12.36;100.00;101258.91;5283638;28;20039;-68
2023/03/19 11:29:06;;;;;;;17.13;9.48;;;;;;;12.30;100.00;101265.56;5278938;28;20375;-69
2023/03/19 11:31:54;;;;;;;15.55;9.90;;;;;;;12.27;100.00;101260.47;5278572;28;20024;-69
2023/03/19 11:34:58;;;;;;;14.73;10.45;;;;;;;12.26;100.00;101261.44;5276274;28;20381;-68
2023/03/19 11:37:39;;;;;;;14.80;10.38;;;;;;;12.23;100.00;101264.34;5262328;28;20136;-69
2023/03/19 11:40:36;;;;;;;17.05;10.75;;;;;;;12.22;100.00;101272.50;5276536;28;20576;-68
2023/03/19 11:43:45;;;;;;;17.17;11.65;;;;;;;12.26;100.00;101272.13;5278357;28;20024;-68
2023/03/19 11:46:28;;;;;;;16.90;11.07;;;;;;;12.34;100.00;101268.88;5282085;28;20409;-68
2023/03/19 11:49:18;;;;;;;13.63;9.32;;;;;;;12.45;100.00;101273.41;5278260;28;20023;-68